createdAt,value
2023-02-24T00:02:00.579Z,62.90
2023-02-24T00:04:30.591Z,65.00
2023-02-24T00:06:59.997Z,68.85
2023-02-24T00:09:31.081Z,64.00
2023-02-24T00:12:01.238Z,75.28
2023-02-24T00:14:32.478Z,72.10
2023-02-24T00:17:00.825Z,65.35
2023-02-24T00:19:32.859Z,87.43
2023-02-24T00:22:03.296Z,79.13
2023-02-24T00:24:32.290Z,82.65
2023-02-24T00:27:07.735Z,83.50
2023-02-24T00:29:37.620Z,90.90
2023-02-24T00:32:08.097Z,92.72
2023-02-24T00:34:38.307Z,92.45
2023-02-24T00:37:08.431Z,86.97
2023-02-24T00:39:41.705Z,95.80
2023-02-24T00:42:12.316Z,96.18
2023-02-24T00:44:42.133Z,86.28
2023-02-24T00:47:11.739Z,77.03
2023-02-24T00:49:43.112Z,76.88
2023-02-24T00:52:15.094Z,85.30
2023-02-24T00:54:46.238Z,79.32
2023-02-24T00:57:14.374Z,58.03
2023-02-24T00:59:47.537Z,47.90
2023-02-24T01:02:16.370Z,47.55
2023-02-24T01:04:46.100Z,46.40
2023-02-24T01:07:16.492Z,47.50
2023-02-24T01:09:44.758Z,45.92
2023-02-24T01:12:38.838Z,47.03
2023-02-24T01:15:10.087Z,55.17
2023-02-24T01:17:40.843Z,46.50
2023-02-24T01:20:16.617Z,48.17
2023-02-24T01:22:48.298Z,44.40
2023-02-24T01:25:19.349Z,43.63
2023-02-24T01:27:47.479Z,37.35
2023-02-24T01:30:18.614Z,38.10
2023-02-24T01:32:48.178Z,28.65
2023-02-24T01:35:16.516Z,27.55
2023-02-24T01:37:46.326Z,32.40
2023-02-24T01:40:21.633Z,33.15
2023-02-24T01:42:50.694Z,38.90
2023-02-24T01:45:25.190Z,40.78
2023-02-24T01:47:55.000Z,43.05
2023-02-24T01:50:26.322Z,48.08
2023-02-24T01:52:59.921Z,38.65
2023-02-24T01:55:32.717Z,46.75
2023-02-24T01:58:04.972Z,40.33
2023-02-24T02:00:37.905Z,47.25
2023-02-24T02:03:12.263Z,34.83
2023-02-24T02:05:42.260Z,35.60
2023-02-24T02:08:12.989Z,45.53
2023-02-24T02:10:44.354Z,39.97
2023-02-24T02:13:14.688Z,45.30
2023-02-24T02:15:53.621Z,47.85
2023-02-24T02:18:33.301Z,39.20
2023-02-24T02:21:25.900Z,50.80
2023-02-24T02:24:27.242Z,44.35
2023-02-24T02:27:19.913Z,36.22
2023-02-24T02:30:26.144Z,42.33
2023-02-24T02:33:33.869Z,36.78
2023-02-24T02:36:13.756Z,40.03
2023-02-24T02:38:54.120Z,47.05
2023-02-24T02:41:28.628Z,49.05
2023-02-24T02:44:07.532Z,47.50
2023-02-24T02:46:42.599Z,48.42
2023-02-24T02:49:19.190Z,52.90
2023-02-24T02:51:52.742Z,52.80
2023-02-24T02:54:30.543Z,50.78
2023-02-24T02:57:05.259Z,56.50
2023-02-24T02:59:38.708Z,53.85
2023-02-24T03:02:14.946Z,54.92
2023-02-24T03:04:51.362Z,54.00
2023-02-24T03:07:23.779Z,48.60
2023-02-24T03:09:57.028Z,47.65
2023-02-24T03:12:27.896Z,49.55
2023-02-24T03:15:02.208Z,41.58
2023-02-24T03:17:37.108Z,44.58
2023-02-24T03:20:16.965Z,44.72
2023-02-24T03:22:50.336Z,42.20
2023-02-24T03:25:24.341Z,39.42
2023-02-24T03:27:58.664Z,39.03
2023-02-24T03:30:33.672Z,46.10
2023-02-24T03:33:06.518Z,41.75
2023-02-24T03:35:40.249Z,29.73
2023-02-24T03:38:11.247Z,37.20
2023-02-24T03:40:40.552Z,39.10
2023-02-24T03:43:16.975Z,30.90
2023-02-24T03:45:47.639Z,38.05
2023-02-24T03:48:17.465Z,33.83
2023-02-24T03:50:47.395Z,36.25
2023-02-24T03:53:41.877Z,41.42
2023-02-24T03:56:28.735Z,34.25
2023-02-24T03:59:15.208Z,30.85
2023-02-24T04:01:51.914Z,34.75
2023-02-24T04:04:30.390Z,32.33
2023-02-24T04:07:15.317Z,45.72
2023-02-24T04:09:52.049Z,46.47
2023-02-24T04:12:26.974Z,38.00
2023-02-24T04:15:08.421Z,40.50
2023-02-24T04:17:43.018Z,45.92
2023-02-24T04:20:15.887Z,48.92
2023-02-24T04:22:51.954Z,40.15
2023-02-24T04:25:25.023Z,45.85
2023-02-24T04:27:56.874Z,52.17
2023-02-24T04:30:29.735Z,45.10
2023-02-24T04:32:58.323Z,34.72
2023-02-24T04:35:27.844Z,40.03
2023-02-24T04:37:57.921Z,36.50
2023-02-24T04:40:27.905Z,42.75
2023-02-24T04:42:56.025Z,36.13
2023-02-24T04:45:27.397Z,38.78
2023-02-24T04:48:00.892Z,34.67
2023-02-24T04:50:31.461Z,35.10
2023-02-24T04:53:01.590Z,40.08
2023-02-24T04:55:34.104Z,32.55
2023-02-24T04:58:03.004Z,29.58
2023-02-24T05:00:35.390Z,33.65
2023-02-24T05:03:05.814Z,27.23
2023-02-24T05:05:35.627Z,31.13
2023-02-24T05:08:07.404Z,30.35
2023-02-24T05:10:40.441Z,25.60
2023-02-24T05:13:09.536Z,20.77
2023-02-24T05:15:41.165Z,18.38
2023-02-24T05:18:14.206Z,21.50
2023-02-24T05:21:03.141Z,22.30
2023-02-24T05:23:34.041Z,15.63
2023-02-24T05:26:08.983Z,18.73
2023-02-24T05:28:38.038Z,17.88
2023-02-24T05:31:08.771Z,12.15
2023-02-24T05:33:38.781Z,16.20
2023-02-24T05:36:09.905Z,13.35
2023-02-24T05:38:38.435Z,11.38
2023-02-24T05:41:15.174Z,11.90
2023-02-24T05:43:48.220Z,15.75
2023-02-24T05:46:16.607Z,17.50
2023-02-24T05:48:45.065Z,20.05
2023-02-24T05:51:13.263Z,18.70
2023-02-24T05:53:42.414Z,15.80
2023-02-24T05:56:12.532Z,27.20
2023-02-24T05:58:40.699Z,22.05
2023-02-24T06:01:16.471Z,28.00
2023-02-24T06:03:48.043Z,19.45
2023-02-24T06:06:16.777Z,16.65
2023-02-24T06:08:50.073Z,29.17
2023-02-24T06:11:21.428Z,20.13
2023-02-24T06:13:49.758Z,24.92
2023-02-24T06:16:19.915Z,16.77
2023-02-24T06:18:50.755Z,16.08
2023-02-24T06:21:20.253Z,27.10
2023-02-24T06:23:48.469Z,17.63
2023-02-24T06:26:19.626Z,22.00
2023-02-24T06:28:50.011Z,20.90
2023-02-24T06:31:18.314Z,23.10
2023-02-24T06:33:46.472Z,19.98
2023-02-24T06:36:15.451Z,23.70
2023-02-24T06:38:44.025Z,19.42
2023-02-24T06:41:11.983Z,21.70
2023-02-24T06:43:40.996Z,23.00
2023-02-24T06:46:11.924Z,22.33
2023-02-24T06:48:40.749Z,17.13
2023-02-24T06:51:15.720Z,26.30
2023-02-24T06:53:45.014Z,19.10
2023-02-24T06:56:15.930Z,24.38
2023-02-24T06:58:45.125Z,24.25
2023-02-24T07:01:16.282Z,29.50
2023-02-24T07:03:47.541Z,25.27
2023-02-24T07:06:23.943Z,21.85
2023-02-24T07:08:53.165Z,16.58
2023-02-24T07:11:22.674Z,17.95
2023-02-24T07:13:51.086Z,19.77
2023-02-24T07:16:25.235Z,22.45
2023-02-24T07:18:56.699Z,21.70
2023-02-24T07:21:26.897Z,22.75
2023-02-24T07:23:58.921Z,16.80
2023-02-24T07:26:30.473Z,15.18
2023-02-24T07:28:58.520Z,15.65
2023-02-24T07:31:27.937Z,15.68
2023-02-24T07:33:57.682Z,13.60
2023-02-24T07:36:30.357Z,14.00
2023-02-24T07:39:01.740Z,10.60
2023-02-24T07:41:31.450Z,15.30
2023-02-24T07:44:03.246Z,13.98
2023-02-24T07:46:33.606Z,15.55
2023-02-24T07:49:03.536Z,7.35
2023-02-24T07:51:32.149Z,12.32
2023-02-24T07:54:01.467Z,5.32
2023-02-24T07:56:31.221Z,8.30
2023-02-24T07:59:01.958Z,9.35
2023-02-24T08:01:39.054Z,7.15
2023-02-24T08:04:09.119Z,6.32
2023-02-24T08:06:46.159Z,9.15
2023-02-24T08:09:20.809Z,6.55
2023-02-24T08:11:52.472Z,6.97
2023-02-24T08:14:23.664Z,4.78
2023-02-24T08:16:59.426Z,4.70
2023-02-24T08:19:32.905Z,9.35
2023-02-24T08:22:19.494Z,5.45
2023-02-24T08:24:50.267Z,5.03
2023-02-24T08:27:20.261Z,7.75
2023-02-24T08:29:59.046Z,7.38
2023-02-24T08:32:34.091Z,8.75
2023-02-24T08:35:04.845Z,7.97
2023-02-24T08:37:39.835Z,4.60
2023-02-24T08:40:29.765Z,10.52
2023-02-24T08:42:59.628Z,7.30
2023-02-24T08:45:29.355Z,6.90
2023-02-24T08:48:00.777Z,6.55
2023-02-24T08:50:31.213Z,6.93
2023-02-24T08:53:01.184Z,7.45
2023-02-24T08:55:33.024Z,13.18
2023-02-24T08:58:02.472Z,5.80
2023-02-24T09:00:49.096Z,9.57
2023-02-24T09:03:28.988Z,7.65
2023-02-24T09:06:04.669Z,17.48
2023-02-24T09:08:34.940Z,12.27
2023-02-24T09:11:08.171Z,7.72
2023-02-24T09:13:37.402Z,10.88
2023-02-24T09:16:06.394Z,6.82
2023-02-24T09:18:39.672Z,12.00
2023-02-24T09:21:37.400Z,17.42
2023-02-24T09:24:07.482Z,6.88
2023-02-24T09:26:43.355Z,6.47
2023-02-24T09:29:33.775Z,7.50
2023-02-24T09:32:13.572Z,5.38
2023-02-24T09:34:44.764Z,5.38
2023-02-24T09:37:24.949Z,8.05
2023-02-24T09:40:23.640Z,8.52
2023-02-24T09:42:58.430Z,7.13
2023-02-24T09:45:33.916Z,6.53
2023-02-24T09:48:11.512Z,8.32
2023-02-24T09:51:04.504Z,6.50
2023-02-24T09:53:49.578Z,5.47
2023-02-24T09:56:26.490Z,6.38
2023-02-24T09:59:10.397Z,6.53
2023-02-24T10:01:45.831Z,7.97
2023-02-24T10:04:30.839Z,6.00
2023-02-24T10:07:06.070Z,7.38
2023-02-24T10:09:38.368Z,5.30
2023-02-24T10:12:15.065Z,10.35
2023-02-24T10:14:53.005Z,7.70
2023-02-24T10:17:30.733Z,5.40
2023-02-24T10:20:13.794Z,7.50
2023-02-24T10:22:51.555Z,10.57
2023-02-24T10:25:41.260Z,7.03
2023-02-24T10:28:23.165Z,9.45
2023-02-24T10:31:04.237Z,6.60
2023-02-24T10:33:39.191Z,7.18
2023-02-24T10:36:11.029Z,6.40
2023-02-24T10:38:45.519Z,6.72
2023-02-24T10:41:14.827Z,9.43
2023-02-24T10:43:54.055Z,6.53
2023-02-24T10:46:40.214Z,10.27
2023-02-24T10:49:16.675Z,5.30
2023-02-24T10:51:52.327Z,5.55
2023-02-24T10:55:05.206Z,3.13
2023-02-24T10:57:44.735Z,5.68
2023-02-24T11:00:51.605Z,5.70
2023-02-24T11:03:35.862Z,2.88
2023-02-24T11:06:30.435Z,4.57
2023-02-24T11:09:19.223Z,2.67
2023-02-24T11:12:07.324Z,2.90
2023-02-24T11:15:19.769Z,4.00
2023-02-24T11:17:51.951Z,4.93
2023-02-24T11:20:46.063Z,4.30
2023-02-24T11:23:20.278Z,4.78
2023-02-24T11:25:53.545Z,3.80
2023-02-24T11:28:38.596Z,4.60
2023-02-24T11:31:17.410Z,3.97
2023-02-24T11:33:57.326Z,2.50
2023-02-24T11:36:37.235Z,2.47
2023-02-24T11:39:22.720Z,5.13
2023-02-24T11:41:55.565Z,3.50
2023-02-24T11:44:31.676Z,3.33
2023-02-24T11:47:07.358Z,2.30
2023-02-24T11:49:42.255Z,2.28
2023-02-24T11:52:17.262Z,2.95
2023-02-24T11:54:51.671Z,4.05
2023-02-24T11:57:25.038Z,3.53
2023-02-24T12:00:04.902Z,2.60
2023-02-24T12:02:47.382Z,3.75
2023-02-24T12:05:18.074Z,3.95
2023-02-24T12:07:51.700Z,4.07
2023-02-24T12:10:24.362Z,3.15
2023-02-24T12:13:02.068Z,2.63
2023-02-24T12:15:34.996Z,2.53
2023-02-24T12:18:13.632Z,2.95
2023-02-24T12:20:48.460Z,3.05
2023-02-24T12:23:19.168Z,3.75
2023-02-24T12:26:04.903Z,4.07
2023-02-24T12:28:46.664Z,2.88
2023-02-24T12:31:27.355Z,3.58
2023-02-24T12:34:08.686Z,3.35
2023-02-24T12:36:49.183Z,4.00
2023-02-24T12:39:22.480Z,4.88
2023-02-24T12:42:01.302Z,7.60
2023-02-24T12:44:38.098Z,4.00
2023-02-24T12:47:12.733Z,5.95
2023-02-24T12:49:59.688Z,4.80
2023-02-24T12:52:35.544Z,7.78
2023-02-24T12:55:12.839Z,4.75
2023-02-24T12:57:49.242Z,8.07
2023-02-24T13:00:25.560Z,3.17
2023-02-24T13:03:05.722Z,6.40
2023-02-24T13:05:42.137Z,9.30
2023-02-24T13:08:19.833Z,3.80
2023-02-24T13:10:51.933Z,5.88
2023-02-24T13:13:29.262Z,5.10
2023-02-24T13:16:00.172Z,5.18
2023-02-24T13:18:32.326Z,4.57
2023-02-24T13:21:06.931Z,5.78
2023-02-24T13:23:35.744Z,7.35
2023-02-24T13:26:05.002Z,9.93
2023-02-24T13:28:36.358Z,7.97
2023-02-24T13:31:07.400Z,8.10
2023-02-24T13:33:39.100Z,10.60
2023-02-24T13:36:12.642Z,9.18
2023-02-24T13:38:42.765Z,9.55
2023-02-24T13:41:36.240Z,8.45
2023-02-24T13:44:21.968Z,8.57
2023-02-24T13:46:59.541Z,11.27
2023-02-24T13:49:37.124Z,8.93
2023-02-24T13:52:15.714Z,9.15
2023-02-24T13:55:06.454Z,10.85
2023-02-24T13:57:57.362Z,9.57
2023-02-24T14:00:36.061Z,10.88
2023-02-24T14:03:12.694Z,11.60
2023-02-24T14:05:44.253Z,7.57
2023-02-24T14:08:21.117Z,9.55
2023-02-24T14:10:53.834Z,10.02
2023-02-24T14:13:27.760Z,8.90
2023-02-24T14:15:56.464Z,10.48
2023-02-24T14:18:27.356Z,9.60
2023-02-24T14:20:58.620Z,9.93
2023-02-24T14:23:29.223Z,11.15
2023-02-24T14:25:59.746Z,11.48
2023-02-24T14:28:31.735Z,11.38
2023-02-24T14:31:02.753Z,12.30
2023-02-24T14:33:33.430Z,8.07
2023-02-24T14:36:03.825Z,9.70
2023-02-24T14:38:34.776Z,9.63
2023-02-24T14:41:03.829Z,11.18
2023-02-24T14:43:31.926Z,12.63
2023-02-24T14:46:06.607Z,12.35
2023-02-24T14:48:35.267Z,10.63
2023-02-24T14:51:10.603Z,13.52
2023-02-24T14:53:45.793Z,13.63
2023-02-24T14:56:14.673Z,11.23
2023-02-24T14:58:47.813Z,9.88
2023-02-24T15:01:21.736Z,11.57
2023-02-24T15:03:52.489Z,14.68
2023-02-24T15:06:26.721Z,12.25
2023-02-24T15:08:59.544Z,14.63
2023-02-24T15:11:31.294Z,12.73
2023-02-24T15:14:02.612Z,13.32
2023-02-24T15:16:37.763Z,16.23
2023-02-24T15:19:06.447Z,17.70
2023-02-24T15:21:41.148Z,12.20
2023-02-24T15:24:19.726Z,12.25
2023-02-24T15:26:54.126Z,14.23
2023-02-24T15:29:26.883Z,14.85
2023-02-24T15:31:56.860Z,15.50
2023-02-24T15:34:28.197Z,20.95
2023-02-24T15:37:01.470Z,16.20
2023-02-24T15:39:31.674Z,18.13
2023-02-24T15:42:08.351Z,16.45
2023-02-24T15:44:37.891Z,12.27
2023-02-24T15:47:20.267Z,14.82
2023-02-24T15:49:48.496Z,14.00
2023-02-24T15:52:23.727Z,12.15
2023-02-24T15:54:52.358Z,24.35
2023-02-24T15:57:21.344Z,13.57
2023-02-24T15:59:49.676Z,16.20
2023-02-24T16:02:20.012Z,10.82
2023-02-24T16:04:48.252Z,18.05
2023-02-24T16:07:20.488Z,20.92
2023-02-24T16:09:50.909Z,14.48
2023-02-24T16:12:22.439Z,12.10
2023-02-24T16:14:55.783Z,17.95
2023-02-24T16:17:31.561Z,21.20
2023-02-24T16:20:00.286Z,14.32
2023-02-24T16:22:30.656Z,11.82
2023-02-24T16:24:58.641Z,16.05
2023-02-24T16:27:29.561Z,15.32
2023-02-24T16:29:58.146Z,15.43
2023-02-24T16:32:28.128Z,18.42
2023-02-24T16:34:56.509Z,14.85
2023-02-24T16:37:27.565Z,12.90
2023-02-24T16:39:57.389Z,14.90
2023-02-24T16:42:25.284Z,15.73
2023-02-24T16:44:53.262Z,15.25
2023-02-24T16:47:24.426Z,17.35
2023-02-24T16:49:55.388Z,16.63
2023-02-24T16:52:24.941Z,16.30
2023-02-24T16:54:53.172Z,16.40
2023-02-24T16:57:25.787Z,13.82
2023-02-24T16:59:54.474Z,14.60
2023-02-24T17:02:25.240Z,16.50
2023-02-24T17:04:54.191Z,15.95
2023-02-24T17:07:22.712Z,17.90
2023-02-24T17:09:50.744Z,15.60
2023-02-24T17:12:22.548Z,13.02
2023-02-24T17:14:51.035Z,18.42
2023-02-24T17:17:20.691Z,18.48
2023-02-24T17:19:48.742Z,21.05
2023-02-24T17:22:17.796Z,23.52
2023-02-24T17:24:46.060Z,16.77
2023-02-24T17:27:14.132Z,22.73
2023-02-24T17:29:43.655Z,21.92
2023-02-24T17:32:11.911Z,18.73
2023-02-24T17:34:40.351Z,19.83
2023-02-24T17:37:08.534Z,18.05
2023-02-24T17:39:36.968Z,19.20
2023-02-24T17:42:05.106Z,13.70
2023-02-24T17:44:33.741Z,15.18
2023-02-24T17:47:03.295Z,16.52
2023-02-24T17:49:31.314Z,18.17
2023-02-24T17:51:59.738Z,21.33
2023-02-24T17:54:27.855Z,17.35
2023-02-24T17:56:55.698Z,22.35
2023-02-24T17:59:24.096Z,22.65
2023-02-24T18:01:52.188Z,21.50
2023-02-24T18:04:22.164Z,21.85
2023-02-24T18:06:50.710Z,19.23
2023-02-24T18:09:20.204Z,18.65
2023-02-24T18:11:48.549Z,18.27
2023-02-24T18:14:16.671Z,16.27
2023-02-24T18:16:44.935Z,19.23
2023-02-24T18:19:13.250Z,15.05
2023-02-24T18:21:42.923Z,19.67
2023-02-24T18:24:39.396Z,17.50
2023-02-24T18:27:07.759Z,17.75
2023-02-24T18:29:35.908Z,16.08
2023-02-24T18:32:05.110Z,15.45
2023-02-24T18:34:33.413Z,14.70
2023-02-24T18:37:02.967Z,13.70
2023-02-24T18:39:31.371Z,13.32
2023-02-24T18:41:59.996Z,14.27
2023-02-24T18:44:27.982Z,10.27
2023-02-24T18:46:56.022Z,14.57
2023-02-24T18:49:24.080Z,10.80
2023-02-24T18:51:52.214Z,8.50
2023-02-24T18:54:21.914Z,17.05
2023-02-24T18:56:50.033Z,12.68
2023-02-24T18:59:18.225Z,10.10
2023-02-24T19:01:46.163Z,12.60
2023-02-24T19:04:16.174Z,13.68
2023-02-24T19:06:49.003Z,11.80
2023-02-24T19:09:21.707Z,11.65
2023-02-24T19:11:54.282Z,11.02
2023-02-24T19:14:22.686Z,8.63
2023-02-24T19:16:50.946Z,9.07
2023-02-24T19:19:19.018Z,10.30
2023-02-24T19:21:48.494Z,10.35
2023-02-24T19:24:17.721Z,8.45
2023-02-24T19:26:47.579Z,9.07
2023-02-24T19:29:17.678Z,8.07
2023-02-24T19:31:46.606Z,8.27
2023-02-24T19:34:15.622Z,9.45
2023-02-24T19:36:43.745Z,6.32
2023-02-24T19:39:22.751Z,6.63
2023-02-24T19:41:51.188Z,7.65
2023-02-24T19:44:20.651Z,10.23
2023-02-24T19:46:49.046Z,9.98
2023-02-24T19:49:17.418Z,7.68
2023-02-24T19:51:48.139Z,7.57
2023-02-24T19:54:17.217Z,5.65
2023-02-24T19:56:45.221Z,5.07
2023-02-24T19:59:13.467Z,6.70
2023-02-24T20:01:43.403Z,5.57
2023-02-24T20:04:12.925Z,3.90
2023-02-24T20:06:43.067Z,5.72
2023-02-24T20:09:15.542Z,3.90
2023-02-24T20:11:45.464Z,4.68
2023-02-24T20:14:14.954Z,5.47
2023-02-24T20:16:45.636Z,5.57
2023-02-24T20:19:15.871Z,6.30
2023-02-24T20:21:43.895Z,5.35
2023-02-24T20:24:14.698Z,4.63
2023-02-24T20:26:46.398Z,3.42
2023-02-24T20:29:15.630Z,3.58
2023-02-24T20:31:46.525Z,3.33
2023-02-24T20:34:16.740Z,3.88
2023-02-24T20:36:44.851Z,4.20
2023-02-24T20:39:13.552Z,3.13
2023-02-24T20:41:41.903Z,3.75
2023-02-24T20:44:10.660Z,3.70
2023-02-24T20:46:39.658Z,4.28
2023-02-24T20:49:11.843Z,6.45
2023-02-24T20:51:40.149Z,3.80
2023-02-24T20:54:10.419Z,3.17
2023-02-24T20:56:40.180Z,4.57
2023-02-24T20:59:10.124Z,3.33
2023-02-24T21:01:39.402Z,3.22
2023-02-24T21:04:07.996Z,4.53
2023-02-24T21:06:38.302Z,2.83
2023-02-24T21:09:07.013Z,6.15
2023-02-24T21:11:35.393Z,5.18
2023-02-24T21:14:03.336Z,6.60
2023-02-24T21:16:31.727Z,4.38
2023-02-24T21:19:00.148Z,5.43
2023-02-24T21:21:29.436Z,5.85
2023-02-24T21:23:58.743Z,7.43
2023-02-24T21:26:29.234Z,9.70
2023-02-24T21:28:59.366Z,6.82
2023-02-24T21:31:28.793Z,6.78
2023-02-24T21:33:57.304Z,9.52
2023-02-24T21:36:28.153Z,9.48
2023-02-24T21:38:57.904Z,8.77
2023-02-24T21:41:26.008Z,10.13
2023-02-24T21:43:55.815Z,9.75
2023-02-24T21:46:49.826Z,9.52
2023-02-24T21:49:18.277Z,8.45
2023-02-24T21:51:46.898Z,6.78
2023-02-24T21:54:16.489Z,10.82
2023-02-24T21:56:44.514Z,7.60
2023-02-24T21:59:13.032Z,10.35
2023-02-24T22:01:44.539Z,7.00
2023-02-24T22:04:15.298Z,7.00
2023-02-24T22:06:44.846Z,9.48
2023-02-24T22:09:19.461Z,7.50
2023-02-24T22:11:50.189Z,8.00
2023-02-24T22:14:20.640Z,12.73
2023-02-24T22:16:48.810Z,7.00
2023-02-24T22:19:19.220Z,9.73
2023-02-24T22:21:47.437Z,7.93
2023-02-24T22:24:17.368Z,8.15
2023-02-24T22:26:46.082Z,6.82
2023-02-24T22:29:15.578Z,9.10
2023-02-24T22:31:47.635Z,7.90
2023-02-24T22:34:17.212Z,13.27
2023-02-24T22:36:45.309Z,16.63
2023-02-24T22:39:16.623Z,15.60
2023-02-24T22:41:45.639Z,19.45
2023-02-24T22:44:19.127Z,18.02
2023-02-24T22:46:48.374Z,15.63
2023-02-24T22:49:16.635Z,19.92
2023-02-24T22:51:56.545Z,16.50
2023-02-24T22:54:24.579Z,19.25
2023-02-24T22:56:53.859Z,20.90
2023-02-24T22:59:24.607Z,18.48
2023-02-24T23:01:53.813Z,19.67
2023-02-24T23:04:21.779Z,23.23
2023-02-24T23:06:49.702Z,24.85
2023-02-24T23:09:20.113Z,17.10
2023-02-24T23:11:48.940Z,19.38
2023-02-24T23:14:17.551Z,22.63
2023-02-24T23:16:48.403Z,23.17
2023-02-24T23:19:18.545Z,19.17
2023-02-24T23:21:49.802Z,19.70
2023-02-24T23:24:20.173Z,23.33
2023-02-24T23:26:51.444Z,17.92
2023-02-24T23:29:20.719Z,18.10
2023-02-24T23:31:50.477Z,20.02
2023-02-24T23:34:19.509Z,20.05
2023-02-24T23:36:48.221Z,22.90
2023-02-24T23:39:20.557Z,22.00
2023-02-24T23:41:48.619Z,16.63
2023-02-24T23:44:17.013Z,16.65
2023-02-24T23:46:45.654Z,20.35
2023-02-24T23:49:14.900Z,18.45
2023-02-24T23:51:48.417Z,17.13
2023-02-24T23:54:17.442Z,19.40
2023-02-24T23:56:46.572Z,16.52
2023-02-24T23:59:15.092Z,18.52
